createdAt,value
2019-06-07T00:00:39.222Z,8.60
2019-06-07T00:03:00.175Z,8.60
2019-06-07T00:05:29.265Z,8.60
2019-06-07T00:08:07.739Z,8.50
2019-06-07T00:10:36.717Z,8.50
2019-06-07T00:12:59.243Z,8.40
2019-06-07T00:15:29.261Z,8.40
2019-06-07T00:17:58.182Z,8.30
2019-06-07T00:20:27.034Z,8.20
2019-06-07T00:22:55.824Z,8.20
2019-06-07T00:25:24.751Z,8.20
2019-06-07T00:27:53.514Z,8.10
2019-06-07T00:30:41.177Z,8.10
2019-06-07T00:32:53.281Z,8.10
2019-06-07T00:35:22.512Z,8.10
2019-06-07T00:37:51.408Z,8.00
2019-06-07T00:40:29.983Z,8.00
2019-06-07T00:42:50.870Z,8.10
2019-06-07T00:45:22.448Z,8.10
2019-06-07T00:47:50.118Z,8.10
2019-06-07T00:50:23.520Z,8.10
2019-06-07T00:55:23.423Z,8.00
2019-06-07T00:57:51.055Z,8.10
2019-06-07T01:00:22.397Z,8.10
2019-06-07T01:02:50.528Z,8.20
2019-06-07T01:05:22.525Z,8.20
2019-06-07T01:07:49.722Z,8.20
2019-06-07T01:10:44.276Z,8.20
2019-06-07T01:12:49.262Z,8.20
2019-06-07T01:15:23.510Z,8.30
2019-06-07T01:18:33.104Z,8.30
2019-06-07T01:20:24.851Z,8.30
2019-06-07T01:22:53.888Z,8.20
2019-06-07T01:25:26.147Z,8.10
2019-06-07T01:27:53.683Z,8.10
2019-06-07T01:30:26.534Z,8.00
2019-06-07T01:32:54.328Z,8.00
2019-06-07T01:35:23.917Z,7.90
2019-06-07T01:37:56.415Z,7.90
2019-06-07T01:40:30.456Z,7.90
2019-06-07T01:42:55.608Z,7.90
2019-06-07T01:45:27.050Z,7.90
2019-06-07T01:47:55.172Z,7.90
2019-06-07T01:50:26.869Z,7.90
2019-06-07T01:52:54.359Z,7.80
2019-06-07T01:55:26.729Z,7.80
2019-06-07T01:57:54.119Z,7.70
2019-06-07T02:00:24.108Z,7.60
2019-06-07T02:02:53.494Z,7.60
2019-06-07T02:05:23.828Z,7.50
2019-06-07T02:07:52.742Z,7.50
2019-06-07T02:10:24.691Z,7.40
2019-06-07T02:12:52.374Z,7.40
2019-06-07T02:15:23.091Z,7.40
2019-06-07T02:17:51.662Z,7.40
2019-06-07T02:20:22.951Z,7.40
2019-06-07T02:22:50.838Z,7.40
2019-06-07T02:25:43.823Z,7.30
2019-06-07T02:27:50.445Z,7.30
2019-06-07T02:32:49.672Z,7.30
2019-06-07T02:35:18.419Z,7.30
2019-06-07T02:37:47.547Z,7.30
2019-06-07T02:40:17.792Z,7.30
2019-06-07T02:42:46.535Z,7.30
2019-06-07T02:45:15.635Z,7.30
2019-06-07T02:47:46.334Z,7.20
2019-06-07T02:50:15.471Z,7.20
2019-06-07T02:52:44.335Z,7.20
2019-06-07T02:55:13.776Z,7.10
2019-06-07T02:57:43.174Z,7.10
2019-06-07T03:00:41.499Z,7.10
2019-06-07T03:02:44.905Z,7.10
2019-06-07T03:05:13.844Z,7.10
2019-06-07T03:07:45.192Z,7.10
2019-06-07T03:10:14.406Z,7.00
2019-06-07T03:12:45.277Z,7.00
2019-06-07T03:15:32.159Z,7.10
2019-06-07T03:17:54.266Z,7.20
2019-06-07T03:20:24.706Z,7.20
2019-06-07T03:22:54.223Z,7.20
2019-06-07T03:25:22.973Z,7.30
2019-06-07T03:27:52.183Z,7.50
2019-06-07T03:30:38.586Z,7.60
2019-06-07T03:32:52.387Z,7.60
2019-06-07T03:35:21.157Z,7.70
2019-06-07T03:37:49.902Z,7.80
2019-06-07T03:40:18.650Z,7.80
2019-06-07T03:42:47.539Z,7.90
2019-06-07T03:45:16.283Z,7.90
2019-06-07T03:47:45.082Z,7.90
2019-06-07T03:50:14.040Z,7.90
2019-06-07T03:52:42.790Z,7.90
2019-06-07T03:55:11.954Z,7.90
2019-06-07T03:58:29.436Z,7.90
2019-06-07T04:00:12.824Z,7.80
2019-06-07T04:02:42.291Z,7.90
2019-06-07T04:05:11.278Z,7.90
2019-06-07T04:07:44.118Z,8.00
2019-06-07T04:10:10.835Z,8.10
2019-06-07T04:12:43.779Z,8.20
2019-06-07T04:15:10.527Z,8.40
2019-06-07T04:18:00.464Z,8.50
2019-06-07T04:20:10.810Z,8.60
2019-06-07T04:22:42.606Z,8.70
2019-06-07T04:25:12.334Z,8.80
2019-06-07T04:27:41.479Z,8.90
2019-06-07T04:30:10.990Z,8.90
2019-06-07T04:32:44.748Z,8.90
2019-06-07T04:35:11.525Z,8.90
2019-06-07T04:37:42.270Z,8.90
2019-06-07T04:40:11.019Z,8.90
2019-06-07T04:42:45.210Z,9.00
2019-06-07T04:45:33.061Z,9.00
2019-06-07T04:47:44.885Z,9.10
2019-06-07T04:50:13.774Z,9.10
2019-06-07T04:52:45.086Z,9.10
2019-06-07T04:55:12.906Z,9.20
2019-06-07T04:57:43.372Z,9.20
2019-06-07T05:00:46.263Z,9.30
2019-06-07T05:02:44.418Z,9.40
2019-06-07T05:05:13.742Z,9.50
2019-06-07T05:07:46.079Z,9.50
2019-06-07T05:10:13.387Z,9.50
2019-06-07T05:12:44.182Z,9.60
2019-06-07T05:15:12.856Z,9.60
2019-06-07T05:17:44.965Z,9.80
2019-06-07T05:20:13.600Z,9.80
2019-06-07T05:22:45.082Z,9.90
2019-06-07T05:25:12.838Z,9.90
2019-06-07T05:27:46.644Z,10.00
2019-06-07T05:30:57.675Z,10.10
2019-06-07T05:32:46.107Z,10.20
2019-06-07T05:35:15.354Z,10.30
2019-06-07T05:37:45.943Z,10.50
2019-06-07T05:40:17.459Z,10.60
2019-06-07T05:42:48.206Z,10.70
2019-06-07T05:45:19.890Z,10.80
2019-06-07T05:47:51.068Z,11.00
2019-06-07T05:50:39.304Z,11.00
2019-06-07T05:52:50.159Z,11.20
2019-06-07T05:55:19.197Z,11.30
2019-06-07T05:57:51.045Z,11.40
2019-06-07T06:00:18.461Z,11.40
2019-06-07T06:03:04.315Z,11.50
2019-06-07T06:05:32.643Z,11.50
2019-06-07T06:07:50.835Z,11.60
2019-06-07T06:10:18.914Z,11.70
2019-06-07T06:12:51.626Z,11.80
2019-06-07T06:15:18.095Z,11.90
2019-06-07T06:17:50.051Z,12.00
2019-06-07T06:20:18.300Z,12.10
2019-06-07T06:22:48.725Z,12.20
2019-06-07T06:25:31.953Z,12.30
2019-06-07T06:28:11.605Z,12.40
2019-06-07T06:30:18.914Z,12.40
2019-06-07T06:32:56.899Z,12.50
2019-06-07T06:35:18.878Z,12.70
2019-06-07T06:37:53.143Z,12.80
2019-06-07T06:40:18.468Z,13.00
2019-06-07T06:42:50.085Z,13.20
2019-06-07T06:45:19.996Z,13.40
2019-06-07T06:47:50.464Z,13.50
2019-06-07T06:50:21.091Z,13.60
2019-06-07T06:52:54.096Z,13.70
2019-06-07T06:55:20.608Z,13.80
2019-06-07T06:57:51.392Z,13.80
2019-06-07T07:00:46.246Z,13.80
2019-06-07T07:05:43.992Z,14.00
2019-06-07T07:08:13.485Z,14.10
2019-06-07T07:10:46.011Z,14.00
2019-06-07T07:13:15.508Z,14.00
2019-06-07T07:15:46.852Z,14.10
2019-06-07T07:18:14.692Z,14.10
2019-06-07T07:20:45.263Z,14.20
2019-06-07T07:23:13.863Z,14.20
2019-06-07T07:25:43.655Z,14.20
2019-06-07T07:28:13.316Z,14.30
2019-06-07T07:30:55.400Z,14.40
2019-06-07T07:33:23.978Z,14.40
2019-06-07T07:36:15.786Z,14.50
2019-06-07T07:38:23.767Z,14.50
2019-06-07T07:41:04.892Z,14.50
2019-06-07T07:43:23.680Z,14.50
2019-06-07T07:46:01.430Z,14.50
2019-06-07T07:48:22.850Z,14.60
2019-06-07T07:50:56.922Z,14.70
2019-06-07T07:53:23.126Z,14.90
2019-06-07T07:55:56.715Z,14.90
2019-06-07T07:58:23.138Z,15.00
2019-06-07T08:01:00.261Z,15.00
2019-06-07T08:03:23.170Z,15.20
2019-06-07T08:05:54.352Z,15.30
2019-06-07T08:08:22.327Z,15.40
2019-06-07T08:10:53.696Z,15.60
2019-06-07T08:13:26.559Z,15.60
2019-06-07T08:15:54.425Z,15.70
2019-06-07T08:18:22.467Z,15.80
2019-06-07T08:21:08.738Z,15.90
2019-06-07T08:23:21.963Z,15.90
2019-06-07T08:25:52.682Z,15.90
2019-06-07T08:28:21.118Z,16.10
2019-06-07T08:30:55.131Z,16.20
2019-06-07T08:33:27.260Z,16.20
2019-06-07T08:36:11.286Z,16.40
2019-06-07T08:38:27.403Z,16.60
2019-06-07T08:40:57.900Z,16.80
2019-06-07T08:43:21.918Z,16.90
2019-06-07T08:45:55.920Z,17.00
2019-06-07T08:48:27.825Z,17.10
2019-06-07T08:50:55.343Z,17.20
2019-06-07T08:53:21.975Z,17.20
2019-06-07T08:55:52.401Z,17.30
2019-06-07T08:58:22.678Z,17.40
2019-06-07T09:00:53.081Z,17.60
2019-06-07T09:03:21.900Z,17.70
2019-06-07T09:05:52.020Z,17.80
2019-06-07T09:08:29.952Z,17.90
2019-06-07T09:10:54.033Z,18.10
2019-06-07T09:13:22.155Z,18.20
2019-06-07T09:15:50.950Z,18.50
2019-06-07T09:18:42.784Z,18.60
2019-06-07T09:20:50.285Z,18.60
2019-06-07T09:23:19.489Z,18.70
2019-06-07T09:25:57.429Z,18.70
2019-06-07T09:28:20.631Z,18.80
2019-06-07T09:30:49.702Z,19.00
2019-06-07T09:33:18.442Z,19.20
2019-06-07T09:35:47.493Z,19.40
2019-06-07T09:38:25.510Z,19.70
2019-06-07T09:40:46.671Z,19.70
2019-06-07T09:45:45.860Z,19.90
2019-06-07T09:48:23.892Z,20.10
2019-06-07T09:50:45.411Z,20.20
2019-06-07T09:53:22.533Z,20.30
2019-06-07T09:55:45.826Z,20.30
2019-06-07T09:58:50.187Z,20.40
2019-06-07T10:00:45.284Z,20.50
2019-06-07T10:03:21.421Z,20.70
2019-06-07T10:05:45.893Z,20.80
2019-06-07T10:09:14.805Z,20.90
2019-06-07T10:10:45.474Z,21.00
2019-06-07T10:13:14.225Z,21.00
2019-06-07T10:15:43.006Z,21.00
2019-06-07T10:18:11.755Z,21.10
2019-06-07T10:20:40.932Z,21.20
2019-06-07T10:23:10.102Z,21.30
2019-06-07T10:25:40.115Z,21.30
2019-06-07T10:28:10.233Z,21.20
2019-06-07T10:30:39.148Z,21.20
2019-06-07T10:33:08.597Z,21.10
2019-06-07T10:35:37.434Z,21.10
2019-06-07T10:38:06.644Z,21.20
2019-06-07T10:40:35.466Z,21.30
2019-06-07T10:43:05.050Z,21.60
2019-06-07T10:45:34.287Z,21.80
2019-06-07T10:48:03.560Z,22.10
2019-06-07T10:50:32.376Z,22.30
2019-06-07T10:53:02.367Z,22.50
2019-06-07T10:55:32.705Z,22.60
2019-06-07T10:58:02.756Z,22.70
2019-06-07T11:00:31.967Z,22.90
2019-06-07T11:03:00.712Z,23.10
2019-06-07T11:05:29.786Z,23.30
2019-06-07T11:08:00.613Z,23.30
2019-06-07T11:10:29.230Z,23.40
2019-06-07T11:12:58.298Z,23.40
2019-06-07T11:15:27.105Z,23.60
2019-06-07T11:17:55.847Z,23.80
2019-06-07T11:20:24.664Z,23.90
2019-06-07T11:22:53.962Z,24.10
2019-06-07T11:25:22.710Z,24.30
2019-06-07T11:27:51.450Z,24.50
2019-06-07T11:30:20.254Z,24.70
2019-06-07T11:32:49.281Z,24.90
2019-06-07T11:35:19.142Z,25.10
2019-06-07T11:37:48.015Z,25.20
2019-06-07T11:40:31.950Z,25.30
2019-06-07T11:42:47.614Z,25.40
2019-06-07T11:45:17.872Z,25.60
2019-06-07T11:47:47.006Z,25.80
2019-06-07T11:50:15.895Z,25.90
2019-06-07T11:52:46.406Z,25.80
2019-06-07T11:55:15.809Z,25.80
2019-06-07T11:57:44.706Z,26.10
2019-06-07T12:00:18.278Z,26.20
2019-06-07T12:02:46.894Z,26.10
2019-06-07T12:05:19.007Z,26.20
2019-06-07T12:07:47.159Z,26.40
2019-06-07T12:10:22.248Z,26.40
2019-06-07T12:12:48.899Z,26.50
2019-06-07T12:15:19.333Z,26.50
2019-06-07T12:17:48.279Z,26.70
2019-06-07T12:20:20.789Z,26.70
2019-06-07T12:22:50.052Z,26.80
2019-06-07T12:25:24.290Z,26.90
2019-06-07T12:27:49.186Z,26.80
2019-06-07T12:30:26.064Z,27.00
2019-06-07T12:32:48.965Z,27.10
2019-06-07T12:35:17.945Z,27.20
2019-06-07T12:37:46.850Z,27.20
2019-06-07T12:40:26.538Z,27.10
2019-06-07T12:42:46.465Z,27.10
2019-06-07T12:45:35.783Z,27.10
2019-06-07T12:47:45.947Z,27.10
2019-06-07T12:50:17.310Z,27.30
2019-06-07T12:52:46.185Z,27.40
2019-06-07T12:55:15.989Z,27.40
2019-06-07T12:57:45.242Z,27.30
2019-06-07T13:00:14.362Z,27.30
2019-06-07T13:02:43.101Z,27.30
2019-06-07T13:05:11.942Z,27.30
2019-06-07T13:07:42.216Z,27.40
2019-06-07T13:10:11.152Z,27.40
2019-06-07T13:12:41.857Z,27.50
2019-06-07T13:15:14.980Z,27.50
2019-06-07T13:17:42.303Z,27.50
2019-06-07T13:20:11.455Z,27.60
2019-06-07T13:22:40.615Z,27.60
2019-06-07T13:25:09.759Z,27.60
2019-06-07T13:27:38.852Z,27.70
2019-06-07T13:30:10.134Z,27.60
2019-06-07T13:32:39.314Z,27.60
2019-06-07T13:35:09.038Z,27.60
2019-06-07T13:37:37.827Z,27.50
2019-06-07T13:40:07.646Z,27.60
2019-06-07T13:42:36.375Z,27.60
2019-06-07T13:45:07.056Z,27.60
2019-06-07T13:47:35.960Z,27.60
2019-06-07T13:50:08.341Z,27.70
2019-06-07T13:52:37.614Z,27.70
2019-06-07T13:55:06.976Z,27.70
2019-06-07T13:57:35.717Z,27.80
2019-06-07T14:00:10.822Z,27.80
2019-06-07T14:02:38.374Z,27.70
2019-06-07T14:05:10.811Z,27.80
2019-06-07T14:07:39.979Z,27.90
2019-06-07T14:10:11.531Z,27.90
2019-06-07T14:12:41.057Z,27.80
2019-06-07T14:15:11.858Z,27.80
2019-06-07T14:17:40.716Z,27.80
2019-06-07T14:20:10.800Z,27.70
2019-06-07T14:22:39.973Z,27.60
2019-06-07T14:25:11.907Z,27.80
2019-06-07T14:27:40.710Z,27.90
2019-06-07T14:30:10.183Z,27.90
2019-06-07T14:32:38.926Z,27.90
2019-06-07T14:35:07.966Z,27.90
2019-06-07T14:37:36.935Z,27.80
2019-06-07T14:40:09.651Z,27.80
2019-06-07T14:42:38.689Z,27.80
2019-06-07T14:45:08.180Z,27.80
2019-06-07T14:47:37.020Z,27.70
2019-06-07T14:50:10.157Z,27.70
2019-06-07T14:52:39.031Z,27.80
2019-06-07T14:55:09.175Z,27.70
2019-06-07T14:57:38.417Z,27.70
2019-06-07T15:00:11.224Z,27.80
2019-06-07T15:02:39.926Z,27.70
2019-06-07T15:05:09.037Z,27.70
2019-06-07T15:07:40.617Z,27.70
2019-06-07T15:10:09.324Z,27.70
2019-06-07T15:12:39.639Z,27.70
2019-06-07T15:15:09.699Z,27.70
2019-06-07T15:17:39.181Z,27.60
2019-06-07T15:20:08.696Z,27.60
2019-06-07T15:22:38.804Z,27.50
2019-06-07T15:25:09.327Z,27.50
2019-06-07T15:27:38.467Z,27.60
2019-06-07T15:30:11.116Z,27.60
2019-06-07T15:32:40.110Z,27.80
2019-06-07T15:35:09.101Z,27.70
2019-06-07T15:37:39.296Z,27.60
2019-06-07T15:40:09.400Z,27.40
2019-06-07T15:42:50.032Z,27.40
2019-06-07T15:45:12.057Z,27.40
2019-06-07T15:47:40.833Z,27.30
2019-06-07T15:50:10.269Z,27.00
2019-06-07T15:52:41.276Z,26.80
2019-06-07T15:55:11.451Z,26.70
2019-06-07T15:57:41.869Z,26.50
2019-06-07T16:00:16.752Z,26.20
2019-06-07T16:02:45.635Z,26.00
2019-06-07T16:05:14.802Z,25.80
2019-06-07T16:07:43.738Z,25.70
2019-06-07T16:10:13.630Z,25.60
2019-06-07T16:12:59.090Z,25.50
2019-06-07T16:15:14.526Z,25.40
2019-06-07T16:17:43.874Z,25.30
2019-06-07T16:20:13.407Z,25.20
2019-06-07T16:22:42.190Z,25.00
2019-06-07T16:25:11.567Z,24.70
2019-06-07T16:27:40.694Z,24.40
2019-06-07T16:30:11.572Z,24.00
2019-06-07T16:32:41.766Z,23.20
2019-06-07T16:35:11.138Z,22.40
2019-06-07T16:37:40.928Z,21.60
2019-06-07T16:40:12.431Z,20.20
2019-06-07T16:42:42.705Z,19.20
2019-06-07T16:45:12.666Z,18.40
2019-06-07T16:47:43.764Z,17.80
2019-06-07T16:50:13.412Z,17.50
2019-06-07T16:52:43.986Z,17.20
2019-06-07T16:55:13.435Z,17.00
2019-06-07T16:57:42.924Z,16.80
2019-06-07T17:00:14.181Z,16.70
2019-06-07T17:02:45.028Z,16.60
2019-06-07T17:05:13.918Z,16.60
2019-06-07T17:07:44.592Z,16.60
2019-06-07T17:10:13.920Z,16.70
2019-06-07T17:12:42.894Z,16.90
2019-06-07T17:15:13.746Z,17.00
2019-06-07T17:17:43.055Z,17.00
2019-06-07T17:20:12.126Z,16.80
2019-06-07T17:22:42.035Z,16.50
2019-06-07T17:25:12.397Z,16.20
2019-06-07T17:27:42.209Z,15.90
2019-06-07T17:30:12.255Z,15.50
2019-06-07T17:32:51.804Z,15.20
2019-06-07T17:35:12.815Z,14.90
2019-06-07T17:37:43.693Z,14.60
2019-06-07T17:40:12.792Z,14.30
2019-06-07T17:42:42.653Z,14.10
2019-06-07T17:45:12.321Z,13.80
2019-06-07T17:47:41.781Z,13.60
2019-06-07T17:50:11.768Z,13.50
2019-06-07T17:52:41.788Z,13.40
2019-06-07T17:55:10.859Z,13.30
2019-06-07T17:57:39.924Z,13.20
2019-06-07T18:02:42.684Z,13.10
2019-06-07T18:05:11.851Z,13.10
2019-06-07T18:07:40.948Z,13.10
2019-06-07T18:10:11.235Z,13.10
2019-06-07T18:12:39.975Z,13.20
2019-06-07T18:15:10.734Z,13.20
2019-06-07T18:17:39.546Z,13.20
2019-06-07T18:20:09.967Z,13.30
2019-06-07T18:22:38.750Z,13.30
2019-06-07T18:25:08.192Z,13.30
2019-06-07T18:27:37.283Z,13.30
2019-06-07T18:30:11.828Z,13.40
2019-06-07T18:32:40.084Z,13.30
2019-06-07T18:35:08.831Z,13.30
2019-06-07T18:37:37.622Z,13.40
2019-06-07T18:40:07.663Z,13.30
2019-06-07T18:42:36.407Z,13.20
2019-06-07T18:45:07.883Z,13.20
2019-06-07T18:47:36.634Z,13.00
2019-06-07T18:50:07.230Z,12.90
2019-06-07T18:52:37.666Z,12.80
2019-06-07T18:55:08.706Z,12.90
2019-06-07T18:57:37.788Z,12.90
2019-06-07T19:00:10.900Z,12.90
2019-06-07T19:02:40.148Z,12.90
2019-06-07T19:05:10.096Z,12.90
2019-06-07T19:07:39.086Z,12.80
2019-06-07T19:10:09.035Z,12.70
2019-06-07T19:12:37.782Z,12.70
2019-06-07T19:15:07.967Z,12.80
2019-06-07T19:17:36.718Z,12.80
2019-06-07T19:20:09.087Z,12.80
2019-06-07T19:22:38.075Z,12.80
2019-06-07T19:25:07.719Z,12.70
2019-06-07T19:27:36.466Z,12.70
2019-06-07T19:30:06.729Z,12.60
2019-06-07T19:32:35.542Z,12.70
2019-06-07T19:35:05.092Z,12.60
2019-06-07T19:37:34.163Z,12.60
2019-06-07T19:40:03.368Z,12.40
2019-06-07T19:42:32.222Z,12.40
2019-06-07T19:45:28.510Z,12.30
2019-06-07T19:47:31.486Z,12.30
2019-06-07T19:50:00.934Z,12.40
2019-06-07T19:52:30.099Z,12.40
2019-06-07T19:55:00.034Z,12.50
2019-06-07T19:57:29.095Z,12.50
2019-06-07T19:59:57.884Z,12.40
2019-06-07T20:02:26.628Z,12.40
2019-06-07T20:04:59.524Z,12.40
2019-06-07T20:07:26.176Z,12.30
2019-06-07T20:09:56.448Z,12.20
2019-06-07T20:12:25.236Z,12.20
2019-06-07T20:15:13.591Z,12.00
2019-06-07T20:17:25.049Z,11.90
2019-06-07T20:19:53.859Z,11.90
2019-06-07T20:22:22.655Z,12.00
2019-06-07T20:24:51.678Z,12.00
2019-06-07T20:27:20.430Z,11.90
2019-06-07T20:29:49.294Z,11.90
2019-06-07T20:32:18.334Z,12.00
2019-06-07T20:34:47.449Z,12.00
2019-06-07T20:37:16.238Z,12.00
2019-06-07T20:39:45.046Z,12.00
2019-06-07T20:42:13.905Z,12.00
2019-06-07T20:44:42.682Z,12.00
2019-06-07T20:47:11.497Z,12.00
2019-06-07T20:49:40.238Z,12.00
2019-06-07T20:52:09.026Z,12.00
2019-06-07T20:54:37.771Z,12.00
2019-06-07T20:57:06.803Z,12.00
2019-06-07T20:59:35.612Z,12.00
2019-06-07T21:02:07.070Z,12.00
2019-06-07T21:04:36.557Z,11.90
2019-06-07T21:07:05.466Z,11.90
2019-06-07T21:09:34.195Z,12.00
2019-06-07T21:12:03.732Z,12.00
2019-06-07T21:14:32.562Z,11.90
2019-06-07T21:17:02.131Z,11.90
2019-06-07T21:19:31.124Z,12.00
2019-06-07T21:22:00.441Z,12.00
2019-06-07T21:24:29.254Z,12.00
2019-06-07T21:26:58.004Z,12.00
2019-06-07T21:29:26.796Z,12.10
2019-06-07T21:31:55.539Z,12.30
2019-06-07T21:34:24.288Z,12.40
2019-06-07T21:36:53.075Z,12.50
2019-06-07T21:39:22.170Z,12.40
2019-06-07T21:41:50.907Z,12.40
2019-06-07T21:44:19.702Z,12.40
2019-06-07T21:46:48.441Z,12.30
2019-06-07T21:49:17.182Z,12.30
2019-06-07T21:51:45.974Z,12.30
2019-06-07T21:54:14.997Z,12.20
2019-06-07T21:56:43.792Z,12.20
2019-06-07T21:59:13.351Z,12.20
2019-06-07T22:01:42.100Z,12.10
2019-06-07T22:04:11.713Z,12.20
2019-06-07T22:06:40.598Z,12.10
2019-06-07T22:09:09.909Z,12.10
2019-06-07T22:11:39.178Z,12.10
2019-06-07T22:14:08.390Z,12.10
2019-06-07T22:16:37.376Z,12.20
2019-06-07T22:19:06.613Z,12.20
2019-06-07T22:21:37.707Z,12.20
2019-06-07T22:24:06.898Z,12.20
2019-06-07T22:26:35.695Z,12.30
2019-06-07T22:29:06.172Z,12.30
2019-06-07T22:31:35.130Z,12.40
2019-06-07T22:34:04.008Z,12.40
2019-06-07T22:36:32.786Z,12.30
2019-06-07T22:39:03.282Z,12.30
2019-06-07T22:41:32.063Z,12.30
2019-06-07T22:44:00.851Z,12.30
2019-06-07T22:46:37.490Z,12.30
2019-06-07T22:49:00.055Z,12.30
2019-06-07T22:51:28.843Z,12.30
2019-06-07T22:53:57.591Z,12.30
2019-06-07T22:56:30.953Z,12.20
2019-06-07T22:58:59.738Z,12.30
2019-06-07T23:01:28.551Z,12.30
2019-06-07T23:03:57.618Z,12.30
2019-06-07T23:06:26.407Z,12.30
2019-06-07T23:08:55.514Z,12.40
2019-06-07T23:11:24.251Z,12.40
2019-06-07T23:13:53.444Z,12.40
2019-06-07T23:16:22.220Z,12.40
2019-06-07T23:18:50.933Z,12.40
2019-06-07T23:21:20.111Z,12.40
2019-06-07T23:23:49.351Z,12.50
2019-06-07T23:26:18.362Z,12.40
2019-06-07T23:28:47.146Z,12.50
2019-06-07T23:31:16.586Z,12.50
2019-06-07T23:33:45.337Z,12.50
2019-06-07T23:36:15.060Z,12.40
2019-06-07T23:38:43.886Z,12.50
2019-06-07T23:41:13.274Z,12.50
2019-06-07T23:43:42.114Z,12.60
2019-06-07T23:46:11.437Z,12.60
2019-06-07T23:48:41.226Z,12.60
2019-06-07T23:51:10.007Z,12.60
2019-06-07T23:53:38.772Z,12.60
2019-06-07T23:56:07.510Z,12.70
2019-06-07T23:58:36.302Z,12.70
